createdAt,value
2019-05-03T00:04:15.870Z,9.10
2019-05-03T00:09:18.484Z,8.91
2019-05-03T00:14:21.808Z,8.80
2019-05-03T00:19:23.981Z,8.36
2019-05-03T00:24:25.914Z,8.31
2019-05-03T00:29:27.915Z,8.48
2019-05-03T00:34:47.073Z,8.57
2019-05-03T00:40:01.896Z,8.54
2019-05-03T00:45:08.484Z,8.43
2019-05-03T00:50:12.029Z,8.59
2019-05-03T00:55:16.983Z,8.56
2019-05-03T01:00:18.316Z,8.56
2019-05-03T01:05:20.192Z,8.32
2019-05-03T01:10:22.762Z,8.37
2019-05-03T01:15:32.342Z,8.17
2019-05-03T01:20:34.180Z,7.96
2019-05-03T01:25:36.140Z,7.83
2019-05-03T01:30:38.138Z,7.46
2019-05-03T01:35:40.063Z,7.35
2019-05-03T01:40:42.057Z,7.44
2019-05-03T01:45:43.961Z,7.65
2019-05-03T01:50:56.457Z,7.66
2019-05-03T01:55:58.507Z,7.56
2019-05-03T02:01:17.519Z,7.57
2019-05-03T02:06:19.455Z,7.20
2019-05-03T02:11:22.249Z,6.87
2019-05-03T02:16:24.317Z,6.86
2019-05-03T02:21:26.249Z,7.15
2019-05-03T02:26:28.186Z,7.14
2019-05-03T02:31:32.692Z,7.07
2019-05-03T02:36:33.996Z,6.98
2019-05-03T02:41:36.072Z,7.02
2019-05-03T02:46:39.756Z,7.04
2019-05-03T02:51:41.601Z,7.27
2019-05-03T02:56:45.832Z,6.66
2019-05-03T03:01:47.392Z,6.41
2019-05-03T03:06:51.362Z,6.43
2019-05-03T03:11:56.851Z,6.71
2019-05-03T03:17:01.545Z,7.00
2019-05-03T03:22:05.873Z,6.96
2019-05-03T03:27:11.846Z,6.89
2019-05-03T03:32:20.402Z,6.75
2019-05-03T03:37:22.591Z,7.06
2019-05-03T03:42:25.142Z,7.01
2019-05-03T03:47:28.975Z,6.85
2019-05-03T03:52:32.289Z,6.96
2019-05-03T03:57:36.112Z,7.12
2019-05-03T04:02:38.589Z,6.94
2019-05-03T04:07:40.762Z,6.67
2019-05-03T04:12:45.438Z,5.96
2019-05-03T04:17:52.622Z,5.81
2019-05-03T04:22:56.096Z,5.80
2019-05-03T04:27:58.514Z,5.98
2019-05-03T04:33:00.438Z,6.16
2019-05-03T04:38:05.306Z,6.50
2019-05-03T04:43:06.577Z,7.24
2019-05-03T04:48:08.669Z,7.78
2019-05-03T04:53:10.549Z,8.44
2019-05-03T04:58:12.471Z,8.84
2019-05-03T05:03:15.155Z,9.52
2019-05-03T05:08:17.186Z,9.99
2019-05-03T05:13:19.156Z,10.45
2019-05-03T05:18:26.386Z,10.83
2019-05-03T05:23:28.584Z,10.77
2019-05-03T05:28:32.212Z,11.03
2019-05-03T05:33:35.340Z,11.36
2019-05-03T05:38:37.434Z,12.01
2019-05-03T05:43:39.383Z,12.07
2019-05-03T05:48:49.248Z,12.45
2019-05-03T05:53:51.202Z,12.26
2019-05-03T05:58:55.376Z,12.80
2019-05-03T06:03:57.707Z,13.40
2019-05-03T06:09:10.735Z,14.06
2019-05-03T06:20:21.546Z,14.99
2019-05-03T06:25:31.194Z,15.23
2019-05-03T06:30:37.878Z,15.78
2019-05-03T06:35:41.335Z,16.11
2019-05-03T06:40:44.684Z,15.98
2019-05-03T06:45:50.481Z,16.57
2019-05-03T06:50:50.764Z,17.09
2019-05-03T06:55:52.758Z,17.31
2019-05-03T07:00:57.650Z,17.62
2019-05-03T07:06:17.567Z,17.82
2019-05-03T07:11:20.611Z,18.13
2019-05-03T07:16:22.542Z,18.56
2019-05-03T07:21:24.822Z,18.31
2019-05-03T07:26:27.021Z,17.89
2019-05-03T07:31:28.874Z,18.16
2019-05-03T07:36:30.808Z,18.75
2019-05-03T07:41:32.777Z,19.11
2019-05-03T07:46:34.999Z,19.66
2019-05-03T07:51:36.963Z,18.98
2019-05-03T07:56:40.676Z,19.36
2019-05-03T08:01:45.575Z,19.77
2019-05-03T08:06:47.826Z,19.66
2019-05-03T08:11:49.696Z,19.92
2019-05-03T08:16:51.639Z,19.76
2019-05-03T08:21:56.459Z,20.31
2019-05-03T08:26:57.341Z,20.78
2019-05-03T08:32:16.174Z,21.30
2019-05-03T08:37:20.078Z,21.06
2019-05-03T08:42:25.389Z,21.35
2019-05-03T08:47:27.531Z,20.94
2019-05-03T08:52:29.459Z,20.94
2019-05-03T08:57:31.507Z,20.61
2019-05-03T09:02:34.590Z,20.76
2019-05-03T09:07:36.661Z,20.30
2019-05-03T09:12:57.247Z,20.72
2019-05-03T09:17:59.236Z,21.39
2019-05-03T09:23:01.311Z,21.25
2019-05-03T09:28:04.683Z,20.64
2019-05-03T09:33:09.027Z,20.22
2019-05-03T09:38:10.719Z,19.88
2019-05-03T09:43:15.109Z,19.88
2019-05-03T09:48:17.371Z,20.19
2019-05-03T09:53:21.218Z,20.19
2019-05-03T09:58:23.138Z,20.36
2019-05-03T10:03:24.995Z,20.77
2019-05-03T10:08:26.899Z,21.83
2019-05-03T10:13:28.778Z,22.07
2019-05-03T10:18:30.744Z,21.53
2019-05-03T10:23:35.784Z,21.89
2019-05-03T10:28:38.231Z,21.57
2019-05-03T10:33:47.962Z,22.69
2019-05-03T10:38:49.903Z,22.76
2019-05-03T10:43:51.933Z,23.28
2019-05-03T10:48:55.862Z,23.67
2019-05-03T10:53:59.519Z,23.20
2019-05-03T10:59:06.461Z,23.43
2019-05-03T11:04:08.402Z,23.61
2019-05-03T11:09:10.452Z,24.07
2019-05-03T11:14:14.762Z,24.42
2019-05-03T11:19:16.544Z,23.81
2019-05-03T11:24:18.579Z,23.42
2019-05-03T11:29:20.506Z,23.15
2019-05-03T11:34:25.337Z,23.44
2019-05-03T11:39:38.073Z,23.55
2019-05-03T11:44:40.042Z,23.76
2019-05-03T11:49:42.097Z,23.90
2019-05-03T11:54:45.251Z,23.08
2019-05-03T11:59:47.640Z,23.35
2019-05-03T12:04:49.473Z,23.46
2019-05-03T12:09:51.464Z,22.50
2019-05-03T12:14:54.814Z,21.31
2019-05-03T12:19:58.323Z,21.70
2019-05-03T12:25:01.304Z,21.83
2019-05-03T12:30:07.130Z,21.93
2019-05-03T12:35:10.633Z,22.44
2019-05-03T12:40:14.939Z,23.03
2019-05-03T12:45:17.263Z,22.25
2019-05-03T12:50:19.463Z,21.96
2019-05-03T12:55:21.526Z,22.17
2019-05-03T13:00:34.597Z,22.12
2019-05-03T13:05:36.810Z,22.11
2019-05-03T13:10:39.951Z,22.12
2019-05-03T13:15:41.934Z,21.68
2019-05-03T13:20:45.379Z,22.07
2019-05-03T13:25:47.559Z,22.34
2019-05-03T13:30:49.444Z,22.56
2019-05-03T13:35:51.408Z,22.68
2019-05-03T13:40:54.371Z,22.14
2019-05-03T13:45:56.729Z,21.91
2019-05-03T13:50:58.574Z,21.55
2019-05-03T13:56:00.561Z,21.98
2019-05-03T14:01:02.579Z,22.14
2019-05-03T14:06:08.688Z,22.03
2019-05-03T14:11:08.605Z,22.27
2019-05-03T14:16:10.545Z,22.34
2019-05-03T14:21:15.079Z,22.42
2019-05-03T14:26:18.281Z,22.48
2019-05-03T14:31:20.197Z,22.72
2019-05-03T14:36:25.060Z,22.58
2019-05-03T14:41:27.308Z,22.53
2019-05-03T14:46:33.166Z,22.33
2019-05-03T14:51:34.958Z,22.40
2019-05-03T14:56:40.208Z,22.55
2019-05-03T15:01:43.902Z,22.22
2019-05-03T15:06:46.144Z,22.15
2019-05-03T15:11:48.188Z,22.17
2019-05-03T15:16:50.209Z,22.25
2019-05-03T15:21:52.065Z,22.17
2019-05-03T15:26:55.370Z,22.11
2019-05-03T15:31:57.447Z,22.18
2019-05-03T15:36:59.333Z,22.22
2019-05-03T15:42:01.244Z,22.22
2019-05-03T15:47:09.499Z,22.13
2019-05-03T15:52:11.727Z,22.14
2019-05-03T15:57:14.468Z,22.21
2019-05-03T16:02:16.480Z,22.33
2019-05-03T16:07:18.543Z,22.36
2019-05-03T16:12:20.573Z,22.09
2019-05-03T16:17:24.382Z,21.45
2019-05-03T16:22:26.674Z,21.39
2019-05-03T16:27:30.496Z,21.22
2019-05-03T16:32:34.705Z,21.21
2019-05-03T16:37:37.331Z,21.09
2019-05-03T16:42:39.160Z,20.97
2019-05-03T16:47:41.084Z,20.92
2019-05-03T16:52:45.575Z,20.93
2019-05-03T16:57:48.757Z,20.80
2019-05-03T17:02:50.637Z,20.87
2019-05-03T17:08:11.230Z,20.78
2019-05-03T17:13:14.822Z,20.34
2019-05-03T17:18:17.301Z,20.10
2019-05-03T17:23:19.574Z,20.15
2019-05-03T17:28:21.956Z,20.23
2019-05-03T17:33:25.323Z,20.02
2019-05-03T17:38:27.335Z,19.79
2019-05-03T17:43:31.369Z,19.67
2019-05-03T17:48:35.625Z,19.76
2019-05-03T17:53:40.598Z,19.71
2019-05-03T17:58:55.187Z,18.62
2019-05-03T18:04:18.402Z,18.55
2019-05-03T18:09:22.256Z,18.60
2019-05-03T18:14:25.143Z,18.77
2019-05-03T18:19:27.884Z,18.77
2019-05-03T18:24:30.031Z,18.74
2019-05-03T18:29:34.428Z,18.56
2019-05-03T18:34:36.510Z,18.16
2019-05-03T18:39:40.722Z,17.95
2019-05-03T18:44:48.019Z,17.88
2019-05-03T18:49:50.318Z,17.02
2019-05-03T18:54:55.047Z,17.11
2019-05-03T18:59:57.198Z,17.36
2019-05-03T19:05:00.175Z,17.34
2019-05-03T19:10:25.224Z,17.16
2019-05-03T19:15:29.544Z,17.08
2019-05-03T19:20:32.430Z,16.86
2019-05-03T19:25:45.925Z,16.49
2019-05-03T19:30:41.805Z,16.58
2019-05-03T19:35:44.503Z,16.73
2019-05-03T19:40:46.502Z,16.68
2019-05-03T19:45:48.793Z,16.68
2019-05-03T19:50:51.448Z,16.46
2019-05-03T19:55:55.302Z,16.27
2019-05-03T20:01:05.799Z,16.20
2019-05-03T20:06:14.363Z,16.27
2019-05-03T20:11:17.673Z,16.15
2019-05-03T20:16:19.858Z,16.04
2019-05-03T20:21:21.843Z,15.81
2019-05-03T20:26:25.294Z,15.68
2019-05-03T20:31:27.469Z,15.70
2019-05-03T20:36:29.411Z,15.49
2019-05-03T20:41:31.369Z,14.96
2019-05-03T20:46:37.818Z,14.67
2019-05-03T20:51:39.811Z,14.50
2019-05-03T20:56:42.694Z,14.20
2019-05-03T21:01:45.314Z,14.35
2019-05-03T21:06:47.264Z,14.63
2019-05-03T21:11:49.200Z,14.77
2019-05-03T21:16:55.575Z,14.35
2019-05-03T21:22:02.471Z,14.34
2019-05-03T21:27:05.709Z,14.62
2019-05-03T21:32:07.837Z,14.62
2019-05-03T21:37:09.713Z,14.18
2019-05-03T21:42:11.597Z,14.34
2019-05-03T21:47:15.543Z,14.73
2019-05-03T21:52:17.410Z,14.76
2019-05-03T21:57:19.319Z,14.88
2019-05-03T22:02:21.813Z,14.76
2019-05-03T22:07:25.116Z,14.61
2019-05-03T22:12:27.487Z,14.30
2019-05-03T22:17:47.875Z,14.31
2019-05-03T22:22:55.410Z,14.50
2019-05-03T22:27:57.535Z,14.41
2019-05-03T22:32:59.438Z,14.49
2019-05-03T22:38:03.974Z,14.41
2019-05-03T22:43:05.031Z,14.36
2019-05-03T22:48:06.896Z,14.30
2019-05-03T22:53:08.801Z,14.26
2019-05-03T22:58:10.780Z,14.25
2019-05-03T23:03:14.495Z,14.20
2019-05-03T23:08:16.540Z,13.84
2019-05-03T23:13:18.419Z,13.46
2019-05-03T23:18:20.342Z,13.23
2019-05-03T23:23:40.559Z,13.11
2019-05-03T23:28:44.524Z,13.07
2019-05-03T23:33:46.651Z,13.22
2019-05-03T23:38:48.611Z,13.47
2019-05-03T23:43:50.420Z,13.22
2019-05-03T23:48:52.356Z,13.00
2019-05-03T23:53:55.025Z,12.84
2019-05-03T23:58:57.073Z,12.43
